Indi — CQIG3 — position and weather

sailwx.info

Track history (hours):
 
Tides and Currents Weather Stations Pressure Air Temp Water Temp Dewpoint Dewpoint Depression Visibility Wind Speed Wind Dir Waves Ship Positions

Indi

Last reported at 2018-Jun-18 02:00 UTC. Time now 2018-Jun-18 02:13 UTC.
Position N 51°05' E 001°44'.

Length 89 m; draft 5.7 m.

Type: Cargo ship. MMSI: 255805951.

Date/timePositionNaut miles runAvg speedWind from/ knotsBaromVisibWave heightAir tempDewpointWater temp
2018-Jun-18 02:00N 51°05' E 001°44'612.4
2018-Jun-18 01:30N 51°00' E 001°38'611.8
2018-Jun-18 01:00N 50°56' E 001°32'610.9
2018-Jun-18 00:30N 50°51' E 001°28'57 8.4
2018-Jun-17 17:39N 50°20' E 000°12'2 7.8
2018-Jun-17 17:26N 50°20' E 000°09'3 7.8
2018-Jun-17 17:00N 50°19' E 000°04'4 8.0
2018-Jun-17 16:30N 50°18' W 000°02'4 8.1
2018-Jun-17 16:00N 50°17' W 000°08'4 8.1
2018-Jun-17 15:29N 50°16' W 000°14'4 8.3
2018-Jun-17 15:00N 50°15' W 000°21'4 8.5
2018-Jun-17 14:30N 50°13' W 000°27'5 9.0
2018-Jun-17 13:59N 50°12' W 000°34'5 9.8
2018-Jun-17 13:30N 50°11' W 000°41'510.5
2018-Jun-17 12:59N 50°10' W 000°49'2312.2
2018-Jun-17 11:07N 50°03' W 001°23'313.1
2018-Jun-17 10:53N 50°03' W 001°28'4712.1
2018-Jun-17 07:03N 49°50' W 002°38'1 9.6
2018-Jun-17 06:55N 49°50' W 002°40'4 9.5
2018-Jun-17 06:30N 49°49' W 002°45'14 8.6
2018-Jun-17 04:55N 49°43' W 003°04'5 7.7
2018-Jun-17 04:18N 49°41' W 003°11'3 7.5
2018-Jun-17 03:57N 49°39' W 003°14'26 7.4
2018-Jun-17 00:25N 49°26' W 003°49'14 8.1
2018-Jun-16 22:39N 49°19' W 004°08'3 9.0
2018-Jun-16 22:21N 49°18' W 004°12'19 9.6
2018-Jun-16 20:21N 49°08' W 004°37'810.4
2018-Jun-16 19:34N 49°04' W 004°48'110.4
2018-Jun-16 19:30N 49°03' W 004°48'1110.9
2018-Jun-16 18:29N 48°58' W 005°03'611.0
2018-Jun-16 17:55N 48°55' W 005°11'710.7
2018-Jun-16 17:14N 48°51' W 005°21'410.9
2018-Jun-16 16:50N 48°49' W 005°27'310.3
2018-Jun-16 16:30N 48°47' W 005°31'6 9.9
2018-Jun-16 15:55N 48°43' W 005°38'4 9.9
2018-Jun-16 15:30N 48°40' W 005°41'5 9.6
2018-Jun-16 14:59N 48°35' W 005°44'  
2018-Jun-12 03:15N 51°14' W 010°22'311.8
2018-Jun-12 03:00N 51°16' W 010°23'711.5
2018-Jun-12 02:26N 51°23' W 010°26'611.2
2018-Jun-12 01:52N 51°29' W 010°29'411.1
2018-Jun-12 01:30N 51°33' W 010°31'710.8
2018-Jun-12 00:49N 51°40' W 010°34'410.6
2018-Jun-12 00:25N 51°44' W 010°36'710.5
2018-Jun-11 23:46N 51°50' W 010°39'310.6
2018-Jun-11 23:29N 51°53' W 010°40'510.7
2018-Jun-11 23:00N 51°58' W 010°43'810.3
2018-Jun-11 22:12N 52°07' W 010°43'310.2
2018-Jun-11 21:54N 52°09' W 010°42'511.4
2018-Jun-11 21:28N 52°12' W 010°35'511.1
2018-Jun-11 21:00N 52°15' W 010°28'611.5
2018-Jun-11 20:30N 52°18' W 010°21'611.8
2018-Jun-11 20:00N 52°21' W 010°12'712.0
2018-Jun-11 19:25N 52°25' W 010°03'611.7
2018-Jun-11 18:52N 52°29' W 009°54'512.3
2018-Jun-11 18:28N 52°32' W 009°47'  
2018-Jun-09 06:43N 52°35' W 009°39'1 4.7
2018-Jun-09 06:29N 52°35' W 009°41'2 4.2
2018-Jun-09 05:56N 52°33' W 009°44'3 5.4
2018-Jun-09 05:27N 52°32' W 009°48'2 5.2
2018-Jun-09 04:59N 52°31' W 009°51'3 5.4
2018-Jun-09 04:30N 52°29' W 009°55'3 5.1
2018-Jun-09 04:00N 52°28' W 009°58'3 5.2
2018-Jun-09 03:29N 52°26' W 010°02'3 5.3
2018-Jun-09 02:56N 52°25' W 010°06'3 5.2
2018-Jun-09 02:21N 52°23' W 010°10'3 6.8
2018-Jun-09 01:54N 52°21' W 010°14'4 8.9
2018-Jun-09 01:24N 52°19' W 010°20'4 8.8
2018-Jun-09 00:59N 52°17' W 010°25'4 8.7
2018-Jun-09 00:30N 52°14' W 010°31'5 9.0
2018-Jun-09 00:00N 52°12' W 010°37'4 8.9
2018-Jun-08 23:30N 52°09' W 010°43'9 9.2
2018-Jun-08 22:30N 52°00' W 010°44'5 9.3
2018-Jun-08 21:58N 51°55' W 010°42'5 9.5
2018-Jun-08 21:30N 51°51' W 010°39'7 9.6
2018-Jun-08 20:48N 51°45' W 010°35'9 9.9
2018-Jun-08 19:55N 51°38' W 010°28'714.5
2018-Jun-08 19:27N 51°32' W 010°21'918.1
2018-Jun-08 18:58N 51°27' W 010°10'1 2.5
2018-Jun-08 18:30N 51°28' W 010°11'510.2
2018-Jun-08 18:00N 51°25' W 010°04'815.7
2018-Jun-08 17:30N 51°20' W 009°55'714.0
2018-Jun-08 16:59N 51°15' W 009°45'2 4.8
2018-Jun-08 16:30N 51°14' W 009°42'  
Track history (hours):
 
Tides and Currents Weather Stations Pressure Air Temp Water Temp Dewpoint Dewpoint Depression Visibility Wind Speed Wind Dir Waves Ship Positions

Indi

Last reported at 2018-Jun-18 02:00 UTC. Time now 2018-Jun-18 02:13 UTC.
Position N 51°05' E 001°44'.

Length 89 m; draft 5.7 m.

Type: Cargo ship. MMSI: 255805951.

Date/timePositionNaut miles runAvg speedWind from/ knotsBaromVisibWave heightAir tempDewpointWater temp
2018-Jun-18 02:00N 51°05' E 001°44'612.4
2018-Jun-18 01:30N 51°00' E 001°38'611.8
2018-Jun-18 01:00N 50°56' E 001°32'610.9
2018-Jun-18 00:30N 50°51' E 001°28'57 8.4
2018-Jun-17 17:39N 50°20' E 000°12'2 7.8
2018-Jun-17 17:26N 50°20' E 000°09'3 7.8
2018-Jun-17 17:00N 50°19' E 000°04'4 8.0
2018-Jun-17 16:30N 50°18' W 000°02'4 8.1
2018-Jun-17 16:00N 50°17' W 000°08'4 8.1
2018-Jun-17 15:29N 50°16' W 000°14'4 8.3
2018-Jun-17 15:00N 50°15' W 000°21'4 8.5
2018-Jun-17 14:30N 50°13' W 000°27'5 9.0
2018-Jun-17 13:59N 50°12' W 000°34'5 9.8
2018-Jun-17 13:30N 50°11' W 000°41'510.5
2018-Jun-17 12:59N 50°10' W 000°49'2312.2
2018-Jun-17 11:07N 50°03' W 001°23'313.1
2018-Jun-17 10:53N 50°03' W 001°28'4712.1
2018-Jun-17 07:03N 49°50' W 002°38'1 9.6
2018-Jun-17 06:55N 49°50' W 002°40'4 9.5
2018-Jun-17 06:30N 49°49' W 002°45'14 8.6
2018-Jun-17 04:55N 49°43' W 003°04'5 7.7
2018-Jun-17 04:18N 49°41' W 003°11'3 7.5
2018-Jun-17 03:57N 49°39' W 003°14'26 7.4
2018-Jun-17 00:25N 49°26' W 003°49'14 8.1
2018-Jun-16 22:39N 49°19' W 004°08'3 9.0
2018-Jun-16 22:21N 49°18' W 004°12'19 9.6
2018-Jun-16 20:21N 49°08' W 004°37'810.4
2018-Jun-16 19:34N 49°04' W 004°48'110.4
2018-Jun-16 19:30N 49°03' W 004°48'1110.9
2018-Jun-16 18:29N 48°58' W 005°03'611.0
2018-Jun-16 17:55N 48°55' W 005°11'710.7
2018-Jun-16 17:14N 48°51' W 005°21'410.9
2018-Jun-16 16:50N 48°49' W 005°27'310.3
2018-Jun-16 16:30N 48°47' W 005°31'6 9.9
2018-Jun-16 15:55N 48°43' W 005°38'4 9.9
2018-Jun-16 15:30N 48°40' W 005°41'5 9.6
2018-Jun-16 14:59N 48°35' W 005°44'  
2018-Jun-12 03:15N 51°14' W 010°22'311.8
2018-Jun-12 03:00N 51°16' W 010°23'711.5
2018-Jun-12 02:26N 51°23' W 010°26'611.2
2018-Jun-12 01:52N 51°29' W 010°29'411.1
2018-Jun-12 01:30N 51°33' W 010°31'710.8
2018-Jun-12 00:49N 51°40' W 010°34'410.6
2018-Jun-12 00:25N 51°44' W 010°36'710.5
2018-Jun-11 23:46N 51°50' W 010°39'310.6
2018-Jun-11 23:29N 51°53' W 010°40'510.7
2018-Jun-11 23:00N 51°58' W 010°43'810.3
2018-Jun-11 22:12N 52°07' W 010°43'310.2
2018-Jun-11 21:54N 52°09' W 010°42'511.4
2018-Jun-11 21:28N 52°12' W 010°35'511.1
2018-Jun-11 21:00N 52°15' W 010°28'611.5
2018-Jun-11 20:30N 52°18' W 010°21'611.8
2018-Jun-11 20:00N 52°21' W 010°12'712.0
2018-Jun-11 19:25N 52°25' W 010°03'611.7
2018-Jun-11 18:52N 52°29' W 009°54'512.3
2018-Jun-11 18:28N 52°32' W 009°47'  
2018-Jun-09 06:43N 52°35' W 009°39'1 4.7
2018-Jun-09 06:29N 52°35' W 009°41'2 4.2
2018-Jun-09 05:56N 52°33' W 009°44'3 5.4
2018-Jun-09 05:27N 52°32' W 009°48'2 5.2
2018-Jun-09 04:59N 52°31' W 009°51'3 5.4
2018-Jun-09 04:30N 52°29' W 009°55'3 5.1
2018-Jun-09 04:00N 52°28' W 009°58'3 5.2
2018-Jun-09 03:29N 52°26' W 010°02'3 5.3
2018-Jun-09 02:56N 52°25' W 010°06'3 5.2
2018-Jun-09 02:21N 52°23' W 010°10'3 6.8
2018-Jun-09 01:54N 52°21' W 010°14'4 8.9
2018-Jun-09 01:24N 52°19' W 010°20'4 8.8
2018-Jun-09 00:59N 52°17' W 010°25'4 8.7
2018-Jun-09 00:30N 52°14' W 010°31'5 9.0
2018-Jun-09 00:00N 52°12' W 010°37'4 8.9
2018-Jun-08 23:30N 52°09' W 010°43'9 9.2
2018-Jun-08 22:30N 52°00' W 010°44'5 9.3
2018-Jun-08 21:58N 51°55' W 010°42'5 9.5
2018-Jun-08 21:30N 51°51' W 010°39'7 9.6
2018-Jun-08 20:48N 51°45' W 010°35'9 9.9
2018-Jun-08 19:55N 51°38' W 010°28'714.5
2018-Jun-08 19:27N 51°32' W 010°21'918.1
2018-Jun-08 18:58N 51°27' W 010°10'1 2.5
2018-Jun-08 18:30N 51°28' W 010°11'510.2
2018-Jun-08 18:00N 51°25' W 010°04'815.7
2018-Jun-08 17:30N 51°20' W 009°55'714.0
2018-Jun-08 16:59N 51°15' W 009°45'2 4.8
2018-Jun-08 16:30N 51°14' W 009°42'  

Dump ship's entire track history